Eastgardens Real Estate, NSW, 2036 Bayside (NSW)

Thinking about buying in Eastgardens? Now could not be a better time, with a whopping 2645 properties either residential or commercial there's certainly plenty to choose from.

The average property price for this area is $806,000 with prices in this suburb ranging from $632,000 to $1,178,000.

Distance to the coast is 2 Km.

Eastgardens Real Estate Market Outlook

Good balance between supply and demand ensures a range of affordable options within budget limits. Recent increases in listings may provide buying opportunities. In this area of average incomes, there is a mix of housing size and quality. While this may present buying opportunities, growth may be constrained. As buyers begin to examine Eastgardens due to other areas being out of the price range and the trend to working from home, "gentrification" may incease price growth. A mix of professions and above average income earners in Eastgardens provides good demand. The lower than average housing turnover of these people also means fewer regular listings leading to periodic large price increases. Lower than average population density constrains growth in Eastgardens to an extent. However, where buyers are willing to compromise on housing and lifestyle choice, there are affordable options. Lower than average industry presence in Eastgardens we believe will be less of a negative impact than it has in the past. Post-COVID and the growth in working from home has lessened the demand for local employment options. This may make Eastgardens a better buying opportunity than it may have been in the past.

About

Properties For Sale

Elders Real Estate 128 BUNNERONG RD, EASTGARDENS, NSW, 2036 750,000 - 1,940,000
McGrath 3 SMITH ST, EASTGARDENS, NSW, 2036 4 2 2 Price on Request
PRD UNIT 603, 128 BANKS AV, EASTGARDENS, NSW, 2036 2 2 1 Selling

Local Schools


None within suburb boundary

(While the above schools are located with the suburb of Eastgardens there may also be nearby schools whose catchments cover this suburb)

Local Crime Rates


Average Local Climate by month


(mm)
RAIN
Min (°C)
TEMP
Max (°C)
TEMP
Min (%)
HUMIDITY
Max (%)
HUMIDITY
(m/sec)
WIND
(MJ/sq m)
SOLAR
Jan2.420.328.550.988.36.223.1
Feb4.120.227.552.787.86.020.1
Mar4.918.826.451.487.45.616.5
Apr3.515.623.949.486.95.014.0
May2.112.021.145.583.25.111.4
Jun4.110.018.350.886.15.29.2
Jul2.18.918.641.880.85.210.5
Aug2.09.419.636.878.15.713.2
Sept1.512.322.436.881.25.817.5
Oct2.014.824.141.484.16.021.0
Nov2.617.125.845.785.66.223.3
Dec2.018.927.446.786.46.224.6

source: Australian Government Bureau of Meteorology

Recently Sold Properties / House Prices

09-06-2022 $1,555,000 2 BOONAH AVE EASTGARDENS 2036
24-05-2022 $2,300,000 25 BOONAH AVE EASTGARDENS 2036
16-05-2022 $930,000 747 / 1 FINCH DR EASTGARDENS 2036
12-05-2022 $870,000 1205 / 128 BANKS AVE EASTGARDENS 2036
02-05-2022 $755,000 308 / 2 OSCAR PL EASTGARDENS 2036
21-03-2022 $1,430,000 607 / 128 BANKS AVE EASTGARDENS 2036
02-03-2022 $1,470,000 511 / 128 BANKS AVE EASTGARDENS 2036
25-02-2022 $1,450,888 1640 / 1 FINCH DR EASTGARDENS 2036
23-02-2022 $2,900,000 28 BOONAH AVE EASTGARDENS 2036
21-01-2022 $2,200,000 240 WENTWORTH AVE EASTGARDENS 2036
21-01-2022 $780,000 30 / 13 OSCAR PL EASTGARDENS 2036
17-12-2021 $2,000,000 212 BUNNERONG RD EASTGARDENS 2036
16-12-2021 $878,000 1343 / 1 FINCH DR EASTGARDENS 2036
14-12-2021 $1,678,000 1602 / 128 BANKS AVE EASTGARDENS 2036
07-12-2021 $1,340,000 412 / 2 OSCAR PL EASTGARDENS 2036
01-12-2021 $2,201,000 3 FLINT ST HILLSDALE 2036
19-11-2021 $112,333 210 BUNNERONG RD EASTGARDENS 2036
16-11-2021 $1,340,000 424 / 8 STUDIO DR EASTGARDENS 2036
12-11-2021 $1,425,000 807 / 128 BANKS AVE EASTGARDENS 2036
26-10-2021 $1,470,000 1606 / 128 BANKS AVE EASTGARDENS 2036
12-10-2021 $835,000 1347 / 1 FINCH DR EASTGARDENS 2036
08-10-2021 $1,470,000 726 / 8 STUDIO DR EASTGARDENS 2036
06-10-2021 $740,000 115 / 8 STUDIO DR EASTGARDENS 2036
13-09-2021 $700,000 24 / 8 STUDIO DR EASTGARDENS 2036
25-08-2021 $1,280,000 530 / 13 OSCAR PL EASTGARDENS 2036
11-08-2021 $1,130,000 202 / 2 OSCAR PL EASTGARDENS 2036
30-07-2021 $770,000 6 / 2 OSCAR PL EASTGARDENS 2036
20-07-2021 $1,772,000 6 FRASER AVE EASTGARDENS 2036
09-06-2021 $1,350,000 526 / 8 STUDIO DR EASTGARDENS 2036
01-06-2021 $1,900,000 58 BOONAH AVE EASTGARDENS 2036
27-05-2021 $1,668,000 248 WENTWORTH AVE EASTGARDENS 2036
19-05-2021 $1,145,000 3 FINCH DR EASTGARDENS 2036
19-05-2021 $1,145,000 3 FINCH DR EASTGARDENS 2036
19-05-2021 $1,145,000 3 FINCH DR EASTGARDENS 2036
19-05-2021 $1,145,000 3 FINCH DR EASTGARDENS 2036
19-05-2021 $1,145,000 3 FINCH DR EASTGARDENS 2036
19-05-2021 $1,145,000 3 FINCH DR EASTGARDENS 2036
19-05-2021 $1,145,000 3 FINCH DR EASTGARDENS 2036
19-05-2021 $1,145,000 3 FINCH DR EASTGARDENS 2036
19-05-2021 $1,145,000 3 FINCH DR EASTGARDENS 2036
19-05-2021 $1,145,000 3 FINCH DR EASTGARDENS 2036
19-05-2021 $1,145,000 3 FINCH DR EASTGARDENS 2036
19-05-2021 $1,145,000 3 FINCH DR EASTGARDENS 2036
19-05-2021 $1,145,000 3 FINCH DR EASTGARDENS 2036
19-05-2021 $1,145,000 3 FINCH DR EASTGARDENS 2036
19-05-2021 $1,145,000 3 FINCH DR EASTGARDENS 2036
19-05-2021 $1,145,000 3 FINCH DR EASTGARDENS 2036
19-05-2021 $1,145,000 3 FINCH DR EASTGARDENS 2036
19-05-2021 $1,145,000 3 FINCH DR EASTGARDENS 2036
19-05-2021 $1,145,000 3 FINCH DR EASTGARDENS 2036

Internet Speed

  • Fibre to the Basement (vectored or non-vectored)
  • Fibre to the Curb
  • Hybrid Fibre Coaxial (HFC)
  • Satellite

Residz covers 12m+ Australian properties and brings together a wealth of data to give you a better understanding of an area. From crime and schools to bush fire, flood risk and more. Begin your search for properties for sale or learn more about where you currently reside. Residz is an exciting next-generation Real Estate platform getting better by the day!